Data for 01/29/2013

Time Sea-Level Adjusted Pressure Absolute Pressure Temperature Relative Humidity Dew Point   
(mb) (inHg) (mb) (inHg) (C) (F) (%) (C) (F)
00:05 1008 29.77 837 24.72 -4.9 23.1 58 -11.9 10.5
00:10 1008 29.77 837 24.72 -4.9 23.3 59 -11.8 10.8
00:15 1008 29.77 837 24.72 -4.8 23.3 59 -11.7 11
00:20 1008 29.77 837 24.72 -4.7 23.5 60 -11.4 11.5
00:25 1008 29.77 837 24.72 -4.6 23.7 55 -12.3 9.9
00:30 1008 29.77 837 24.72 -4.4 24.1 55 -12.1 10.3
00:35 1008 29.77 837 24.72 -4.3 24.2 57 -11.7 11
00:40 1008 29.77 837 24.72 -4.4 24 57 -11.7 10.9
00:45 1008 29.77 837 24.72 -4.4 24 56 -11.9 10.5
00:50 1008 29.77 837 24.72 -4.4 24.1 57 -11.7 10.9
00:55 1008 29.77 837 24.72 -4.4 24.1 56 -11.8 10.7
01:00 1008 29.77 837 24.72 -4.5 23.9 57 -11.8 10.8
01:05 1008 29.77 837 24.72 -4.6 23.8 58 -11.7 11
01:10 1008 29.77 837 24.72 -4.6 23.7 57 -11.8 10.7
01:15 1008 29.77 837 24.72 -4.7 23.6 58 -11.8 10.8
01:20 1008 29.77 837 24.72 -4.7 23.6 56 -12.1 10.2
01:25 1008 29.77 837 24.72 -4.6 23.8 57 -11.9 10.7
01:30 1008 29.77 837 24.72 -4.6 23.7 57 -12 10.5
01:35 1008 29.77 837 24.72 -4.6 23.7 56 -12 10.4
01:40 1008 29.77 837 24.72 -4.6 23.7 56 -12 10.3
01:45 1008 29.77 837 24.72 -4.5 23.9 56 -12.1 10.2
01:50 1008 29.77 837 24.72 -4.5 23.9 56 -12.1 10.2
01:55 1008 29.77 837 24.72 -4.5 23.9 56 -12 10.4
02:00 1008 29.77 837 24.72 -4.5 23.9 54 -12.4 9.7
02:05 1008 29.77 837 24.72 -4.5 24 55 -12.1 10.2
02:10 1008 29.77 837 24.72 -4.6 23.8 56 -12 10.4
02:15 1007 29.74 837 24.72 -4.6 23.7 57 -11.8 10.7
02:20 1007 29.74 837 24.72 -4.7 23.6 59 -11.6 11.1
02:25 1007 29.74 837 24.72 -4.7 23.5 59 -11.6 11.1
02:30 1007 29.74 837 24.72 -4.7 23.5 58 -11.8 10.8
02:35 1008 29.77 837 24.72 -4.7 23.6 58 -11.7 10.9
02:40 1007 29.74 837 24.72 -4.6 23.6 58 -11.7 11
02:45 1007 29.74 837 24.72 -4.6 23.7 56 -12 10.3
02:50 1007 29.74 837 24.72 -4.4 24 57 -11.7 11
02:55 1007 29.74 837 24.72 -4.4 24 55 -12.2 10.1
03:00 1007 29.74 837 24.72 -4.2 24.5 55 -12 10.3
03:05 1007 29.74 837 24.72 -4.2 24.5 55 -12 10.4
03:10 1007 29.74 837 24.72 -4.1 24.6 55 -11.9 10.6
03:15 1007 29.74 837 24.72 -4.3 24.2 56 -11.8 10.8
03:20 1007 29.74 837 24.72 -4.5 23.9 57 -11.9 10.7
03:25 1007 29.74 837 24.72 -4.6 23.7 57 -11.8 10.7
03:30 1007 29.74 837 24.72 -4.7 23.5 57 -11.9 10.6
03:35 1007 29.74 837 24.72 -4.7 23.5 57 -12 10.5
03:40 1007 29.74 837 24.72 -4.7 23.5 58 -11.8 10.7
03:45 1007 29.74 837 24.72 -4.8 23.4 58 -11.8 10.8
03:50 1008 29.77 837 24.72 -4.8 23.4 60 -11.4 11.4
03:55 1008 29.77 837 24.72 -4.7 23.5 60 -11.4 11.6
04:00 1008 29.77 837 24.72 -4.7 23.5 60 -11.3 11.6
04:05 1008 29.77 837 24.72 -4.8 23.4 60 -11.4 11.6
04:10 1008 29.77 837 24.72 -4.8 23.4 60 -11.4 11.5
04:15 1008 29.77 837 24.72 -4.8 23.3 61 -11.3 11.6
04:20 1008 29.77 837 24.72 -4.9 23.2 61 -11.2 11.8
04:25 1008 29.77 837 24.72 -5 23 62 -11.2 11.8
04:30 1008 29.77 837 24.72 -5.1 22.9 62 -11.2 11.8
04:35 1008 29.77 837 24.72 -5.1 22.8 62 -11.2 11.8
04:40 1008 29.77 837 24.72 -5.1 22.9 62 -11.2 11.8
04:45 1008 29.77 837 24.72 -5 22.9 62 -11.3 11.6
04:50 1008 29.77 837 24.72 -5 23 60 -11.6 11.1
04:55 1008 29.77 837 24.72 -5 23 59 -11.8 10.8
05:00 1008 29.77 837 24.72 -4.9 23.2 60 -11.6 11.2
05:05 1008 29.77 837 24.72 -4.9 23.2 60 -11.5 11.3
05:10 1008 29.77 837 24.72 -5 23 61 -11.5 11.3
05:15 1008 29.77 837 24.72 -5 22.9 62 -11.3 11.6
05:20 1008 29.77 837 24.72 -5.1 22.9 62 -11.3 11.7
05:25 1008 29.77 837 24.72 -5 22.9 62 -11.3 11.7
05:30 1008 29.77 837 24.72 -5 23 62 -11.2 11.8
05:35 1008 29.77 837 24.72 -5 22.9 62 -11.3 11.7
05:40 1008 29.77 837 24.72 -5.1 22.9 62 -11.2 11.8
05:45 1008 29.77 837 24.72 -5 22.9 62 -11.3 11.7
05:50 1008 29.77 837 24.72 -5 23 63 -11.1 12.1
05:55 1008 29.77 838 24.75 -5 23 63 -11.1 12
06:00 1008 29.77 838 24.75 -4.9 23.1 64 -10.7 12.8
06:05 1008 29.77 838 24.75 -5 23 65 -10.6 13
06:10 1009 29.8 838 24.75 -5.1 22.8 68 -10.1 13.9
06:15 1009 29.8 838 24.75 -5.2 22.6 70 -9.9 14.1
06:20 1009 29.8 838 24.75 -5.4 22.3 74 -9.4 15.1
06:25 1009 29.8 838 24.75 -5.6 22 76 -9.2 15.4
06:30 1009 29.8 838 24.75 -5.5 22.1 78 -8.8 16.1
06:35 1009 29.8 838 24.75 -5.5 22.2 79 -8.6 16.5
06:40 1009 29.8 838 24.75 -5.5 22.2 79 -8.5 16.7
06:45 1009 29.8 838 24.75 -5.5 22.1 80 -8.4 16.9
06:50 1009 29.8 838 24.75 -5.7 21.8 82 -8.4 17
06:55 1009 29.8 838 24.75 -5.9 21.5 84 -8.1 17.4
07:00 1009 29.8 838 24.75 -5.9 21.3 87 -7.8 17.9
07:05 1009 29.8 838 24.75 -6 21.2 88 -7.7 18.1
07:10 1009 29.8 838 24.75 -6.1 21 89 -7.7 18.2
07:15 1009 29.8 838 24.75 -6.1 21 89 -7.7 18.2
07:20 1009 29.8 839 24.78 -6.2 20.9 89 -7.6 18.3
07:25 1009 29.8 839 24.78 -6.2 20.9 90 -7.6 18.4
07:30 1009 29.8 839 24.78 -6.2 20.8 90 -7.7 18.2
07:35 1009 29.8 839 24.78 -6.4 20.6 90 -7.7 18.2
07:40 1010 29.83 839 24.78 -6.5 20.3 90 -7.8 17.9
07:45 1010 29.83 839 24.78 -6.7 20 91 -7.9 17.8
07:50 1010 29.83 839 24.78 -6.6 20.1 91 -7.8 18
07:55 1010 29.83 839 24.78 -6.5 20.4 91 -7.7 18.2
08:00 1010 29.83 839 24.78 -6.3 20.6 91 -7.6 18.4
08:05 1010 29.83 839 24.78 -6.2 20.9 90 -7.5 18.5
08:10 1010 29.83 839 24.78 -6.2 20.9 91 -7.5 18.6
08:15 1010 29.83 839 24.78 -6.2 20.9 90 -7.6 18.4
08:20 1010 29.83 839 24.78 -6.3 20.7 91 -7.6 18.3
08:25 1010 29.83 839 24.78 -6.3 20.7 90 -7.6 18.3
08:30 1010 29.83 839 24.78 -6.4 20.5 90 -7.8 18
08:35 1010 29.83 840 24.81 -6.6 20 92 -7.8 18
08:40 1010 29.83 840 24.81 -6.6 20.1 92 -7.7 18.1
08:45 1010 29.83 840 24.81 -6.5 20.3 91 -7.7 18.2
08:50 1010 29.83 840 24.81 -6.4 20.4 91 -7.7 18.1
08:55 1011 29.85 840 24.81 -6.6 20.2 91 -7.8 17.9
09:00 1011 29.85 840 24.81 -6.6 20.2 91 -7.8 17.9
09:05 1011 29.85 840 24.81 -6.6 20.2 91 -7.8 17.9
09:10 1011 29.85 840 24.81 -6.6 20.1 90 -8 17.6
09:15 1011 29.85 840 24.81 -6.7 20 90 -8 17.6
09:20 1011 29.85 840 24.81 -6.6 20.1 90 -8 17.6
09:25 1011 29.85 840 24.81 -6.7 19.9 90 -8 17.5
09:30 1011 29.85 840 24.81 -6.6 20.1 89 -8.1 17.4
09:35 1011 29.85 840 24.81 -6.5 20.3 89 -8 17.6
09:40 1011 29.85 840 24.81 -6.2 20.8 87 -8.1 17.5
09:45 1011 29.85 841 24.83 -6.3 20.7 88 -8 17.5
09:50 1011 29.85 841 24.83 -6.2 20.8 87 -8.1 17.4
09:55 1012 29.88 841 24.83 -6.1 21.1 85 -8.2 17.3
10:00 1012 29.88 841 24.83 -6 21.1 85 -8.2 17.2
10:05 1012 29.88 841 24.83 -6 21.2 84 -8.3 17
10:10 1012 29.88 841 24.83 -5.9 21.3 83 -8.3 17
10:15 1012 29.88 841 24.83 -5.8 21.5 83 -8.3 17.1
10:20 1012 29.88 841 24.83 -5.9 21.4 83 -8.3 17.1
10:25 1012 29.88 841 24.83 -5.9 21.5 83 -8.3 17
10:30 1012 29.88 841 24.83 -5.6 21.9 82 -8.3 17.1
10:35 1012 29.88 841 24.83 -5.5 22.1 81 -8.2 17.2
10:40 1012 29.88 841 24.83 -5.3 22.4 80 -8.2 17.2
10:45 1012 29.88 841 24.83 -5.2 22.6 80 -8.2 17.3
10:50 1012 29.88 842 24.86 -4.9 23.1 79 -8.1 17.4
10:55 1012 29.88 842 24.86 -5 23.1 79 -8 17.6
11:00 1012 29.88 842 24.86 -5.1 22.9 79 -8.1 17.4
11:05 1013 29.91 842 24.86 -5 22.9 79 -8.2 17.3
11:10 1013 29.91 842 24.86 -5 23 79 -8.1 17.5
11:15 1013 29.91 842 24.86 -4.6 23.6 77 -8 17.5
11:20 1013 29.91 842 24.86 -4.4 24.1 76 -8.1 17.4
11:25 1013 29.91 842 24.86 -4.3 24.2 75 -8.1 17.3
11:30 1013 29.91 842 24.86 -4.3 24.2 75 -8.2 17.3
11:35 1013 29.91 843 24.89 -4.5 24 75 -8.3 17
11:40 1013 29.91 843 24.89 -4.5 23.9 74 -8.5 16.7
11:45 1014 29.94 843 24.89 -4.4 24.2 71 -8.9 16.1
11:50 1014 29.94 843 24.89 -4.4 24 72 -8.8 16.2
11:55 1014 29.94 843 24.89 -4.6 23.7 73 -8.8 16.2
12:00 1014 29.94 843 24.89 -4.7 23.5 72 -9.1 15.6
12:05 1014 29.94 843 24.89 -4.3 24.3 69 -9.1 15.6
12:10 1014 29.94 843 24.89 -4.3 24.2 69 -9.3 15.3
12:15 1014 29.94 843 24.89 -5 23 72 -9.3 15.2
12:20 1014 29.94 843 24.89 -5.1 22.9 70 -9.7 14.5
12:25 1014 29.94 844 24.92 -4.7 23.5 70 -9.5 14.9
12:30 1014 29.94 844 24.92 -4.6 23.6 69 -9.6 14.8
12:35 1014 29.94 844 24.92 -4.5 23.8 68 -9.6 14.8
12:40 1014 29.94 844 24.92 -4.7 23.6 68 -9.7 14.5
12:45 1014 29.94 844 24.92 -4.7 23.5 67 -10 14
12:50 1015 29.97 844 24.92 -4.8 23.4 68 -9.9 14.3
12:55 1015 29.97 844 24.92 -4.8 23.4 68 -9.8 14.3
13:00 1015 29.97 844 24.92 -4.9 23.2 68 -9.9 14.2
13:05 1015 29.97 844 24.92 -4.9 23.2 69 -9.7 14.5
13:10 1015 29.97 844 24.92 -5 23 67 -10.1 13.8
13:15 1015 29.97 844 24.92 -5.2 22.7 67 -10.5 13.2
13:20 1015 29.97 844 24.92 -5.4 22.2 67 -10.7 12.7
13:25 1015 29.97 844 24.92 -5.3 22.4 65 -10.9 12.4
13:30 1015 29.97 844 24.92 -5 22.9 63 -11.1 12.1
13:35 1015 29.97 844 24.92 -4.9 23.2 59 -11.7 11
13:40 1015 29.97 844 24.92 -4.7 23.6 60 -11.4 11.6
13:45 1015 29.97 844 24.92 -4.9 23.1 61 -11.3 11.7
13:50 1015 29.97 844 24.92 -5.3 22.5 62 -11.5 11.3
13:55 1015 29.97 844 24.92 -5.4 22.2 62 -11.7 10.9
14:00 1015 29.97 844 24.92 -5.2 22.6 60 -11.9 10.5
14:05 1015 29.97 844 24.92 -4.9 23.2 57 -12.1 10.2
14:10 1015 29.97 845 24.95 -4.8 23.4 55 -12.6 9.3
14:15 1015 29.97 845 24.95 -4.6 23.7 56 -12.1 10.2
14:20 1016 30 845 24.95 -4.5 23.9 58 -11.5 11.3
14:25 1016 30 845 24.95 -5.1 22.9 59 -11.9 10.6
14:30 1016 30 845 24.95 -5.4 22.3 60 -11.9 10.6
14:35 1016 30 845 24.95 -5.3 22.5 59 -12.1 10.2
14:40 1016 30 845 24.95 -5.5 22.1 58 -12.5 9.5
14:45 1016 30 845 24.95 -5.1 22.8 60 -11.8 10.8
14:50 1016 30 845 24.95 -4.7 23.5 58 -11.9 10.7
14:55 1016 30 845 24.95 -5 22.9 61 -11.4 11.5
15:00 1016 30 845 24.95 -5.4 22.4 60 -11.9 10.6
15:05 1016 30 845 24.95 -5.6 21.9 60 -12.2 10.1
15:10 1016 30 845 24.95 -5.7 21.8 59 -12.4 9.7
15:15 1016 30 845 24.95 -5.9 21.4 60 -12.5 9.5
15:20 1016 30 845 24.95 -5.8 21.6 59 -12.5 9.4
15:25 1016 30 846 24.98 -5.8 21.5 59 -12.6 9.4
15:30 1016 30 846 24.98 -5.7 21.7 59 -12.5 9.4
15:35 1016 30 846 24.98 -5.7 21.7 59 -12.4 9.6
15:40 1017 30.03 846 24.98 -5.7 21.7 58 -12.8 9
15:45 1017 30.03 846 24.98 -5.7 21.7 56 -13.1 8.4
15:50 1017 30.03 846 24.98 -6.2 20.9 57 -13.3 8
15:55 1017 30.03 846 24.98 -6.3 20.7 58 -13.2 8.2
16:00 1017 30.03 846 24.98 -6.3 20.7 59 -13.1 8.5
16:05 1017 30.03 846 24.98 -6.2 20.9 57 -13.3 8.1
16:10 1017 30.03 846 24.98 -6.2 20.9 55 -13.7 7.3
16:15 1017 30.03 846 24.98 -6 21.1 55 -13.7 7.4
16:20 1017 30.03 846 24.98 -6 21.2 56 -13.5 7.8
16:25 1017 30.03 846 24.98 -6 21.2 55 -13.7 7.3
16:30 1017 30.03 846 24.98 -5.9 21.3 56 -13.5 7.8
16:35 1017 30.03 846 24.98 -6.1 21.1 59 -12.9 8.8
16:40 1017 30.03 847 25.01 -7.1 19.3 60 -13.5 7.6
16:45 1017 30.03 847 25.01 -7.1 19.1 59 -13.9 6.9
16:50 1017 30.03 846 24.98 -6.8 19.8 59 -13.5 7.7
16:55 1017 30.03 846 24.98 -7.2 19 60 -13.7 7.4
17:00 1017 30.03 847 25.01 -7.6 18.2 61 -13.9 7
17:05 1017 30.03 847 25.01 -7.8 17.9 62 -13.8 7.1
17:10 1017 30.03 847 25.01 -8.1 17.5 63 -13.9 6.9
17:15 1018 30.06 847 25.01 -8.4 16.9 63 -14.2 6.5
17:20 1018 30.06 847 25.01 -8.3 17.2 62 -14.3 6.2
17:25 1018 30.06 847 25.01 -8.6 16.4 64 -14.2 6.4
17:30 1018 30.06 847 25.01 -9 15.8 66 -14.3 6.3
17:35 1018 30.06 847 25.01 -8.7 16.3 65 -14.3 6.3
17:40 1018 30.06 847 25.01 -8.7 16.3 64 -14.3 6.3
17:45 1018 30.06 847 25.01 -9 15.8 66 -14.2 6.4
17:50 1018 30.06 847 25.01 -9.3 15.3 66 -14.4 6
17:55 1018 30.06 847 25.01 -9.3 15.3 66 -14.5 5.9
18:00 1018 30.06 847 25.01 -9.2 15.5 66 -14.4 6
18:05 1018 30.06 847 25.01 -9.2 15.5 66 -14.3 6.2
18:10 1018 30.06 847 25.01 -9.3 15.3 66 -14.4 6
18:15 1018 30.06 847 25.01 -9.2 15.4 66 -14.5 6
18:20 1018 30.06 847 25.01 -9.1 15.6 65 -14.5 5.8
18:25 1018 30.06 847 25.01 -9.1 15.7 65 -14.5 6
18:30 1018 30.06 847 25.01 -9.2 15.4 65 -14.6 5.8
18:35 1018 30.06 847 25.01 -9.3 15.2 65 -14.8 5.3
18:40 1018 30.06 847 25.01 -9.4 15 66 -14.7 5.6
18:45 1018 30.06 847 25.01 -9.4 15 66 -14.7 5.5
18:50 1018 30.06 847 25.01 -9.3 15.2 66 -14.6 5.7
18:55 1018 30.06 847 25.01 -9.5 14.9 67 -14.5 5.9
19:00 1018 30.06 847 25.01 -9.7 14.6 68 -14.5 6
19:05 1018 30.06 847 25.01 -9.8 14.4 68 -14.6 5.8
19:10 1018 30.06 847 25.01 -9.9 14.2 70 -14.4 6
19:15 1018 30.06 847 25.01 -9.8 14.3 69 -14.5 6
19:20 1018 30.06 847 25.01 -9.9 14.2 69 -14.5 5.8
19:25 1018 30.06 847 25.01 -10 14.1 70 -14.5 5.8
19:30 1018 30.06 847 25.01 -10 14 70 -14.5 5.9
19:35 1018 30.06 847 25.01 -10.2 13.7 71 -14.5 6
19:40 1018 30.06 847 25.01 -10.5 13.1 73 -14.5 5.9
19:45 1018 30.06 847 25.01 -10.7 12.8 74 -14.5 5.8
19:50 1018 30.06 847 25.01 -10.7 12.7 74 -14.5 6
19:55 1018 30.06 847 25.01 -10.7 12.7 76 -14.2 6.4
20:00 1018 30.06 847 25.01 -10.7 12.7 75 -14.3 6.3
20:05 1018 30.06 847 25.01 -10.8 12.5 76 -14.3 6.2
20:10 1018 30.06 847 25.01 -10.9 12.5 75 -14.5 5.9
20:15 1018 30.06 847 25.01 -10.9 12.4 75 -14.5 5.9
20:20 1018 30.06 847 25.01 -10.9 12.3 76 -14.4 6
20:25 1018 30.06 847 25.01 -10.9 12.4 76 -14.4 6.1
20:30 1018 30.06 847 25.01 -10.9 12.4 74 -14.6 5.7
20:35 1018 30.06 847 25.01 -11 12.2 75 -14.6 5.8
20:40 1018 30.06 847 25.01 -11 12.2 75 -14.6 5.7
20:45 1018 30.06 847 25.01 -11 12.2 75 -14.7 5.6
20:50 1018 30.06 847 25.01 -11 12.1 75 -14.7 5.6
20:55 1018 30.06 847 25.01 -11 12.2 75 -14.7 5.6
21:00 1018 30.06 847 25.01 -11 12.3 75 -14.6 5.8
21:05 1018 30.06 847 25.01 -10.9 12.3 76 -14.4 6
21:10 1018 30.06 847 25.01 -10.9 12.4 74 -14.7 5.6
21:15 1018 30.06 847 25.01 -11 12.3 74 -14.7 5.6
21:20 1017 30.03 847 25.01 -11.2 11.9 75 -14.8 5.3
21:25 1017 30.03 847 25.01 -11.2 11.8 74 -14.9 5.2
21:30 1017 30.03 847 25.01 -11.1 11.9 73 -15 5
21:35 1017 30.03 847 25.01 -11.2 11.8 74 -15 4.9
21:40 1017 30.03 847 25.01 -11.3 11.7 73 -15.2 4.7
21:45 1017 30.03 847 25.01 -11.3 11.6 75 -15 5
21:50 1017 30.03 847 25.01 -11.2 11.8 73 -15.1 4.8
21:55 1018 30.06 847 25.01 -11.2 11.8 73 -15.1 4.8
22:00 1018 30.06 847 25.01 -11.2 11.8 73 -15.1 4.7
22:05 1018 30.06 847 25.01 -11.2 11.9 74 -15 5
22:10 1017 30.03 847 25.01 -11.1 12.1 72 -15.2 4.6
22:15 1017 30.03 847 25.01 -11.2 11.9 72 -15.3 4.4
22:20 1017 30.03 847 25.01 -11.2 11.9 73 -15.1 4.7
22:25 1017 30.03 846 24.98 -11 12.2 72 -15.2 4.7
22:30 1017 30.03 846 24.98 -11 12.3 70 -15.4 4.3
22:35 1017 30.03 846 24.98 -11.1 12.1 71 -15.3 4.4
22:40 1017 30.03 846 24.98 -11 12.2 70 -15.5 4.1
22:45 1017 30.03 846 24.98 -11 12.2 69 -15.6 3.9
22:50 1017 30.03 846 24.98 -11.1 12.1 71 -15.4 4.3
22:55 1017 30.03 846 24.98 -11 12.2 70 -15.4 4.3
23:00 1017 30.03 846 24.98 -10.9 12.3 72 -15.1 4.8
23:05 1017 30.03 846 24.98 -10.8 12.5 71 -15.2 4.7
23:10 1017 30.03 846 24.98 -10.7 12.7 72 -14.8 5.3
23:15 1017 30.03 846 24.98 -10.8 12.5 73 -14.8 5.3
23:20 1016 30 846 24.98 -11 12.2 73 -15 5.1
23:25 1016 30 845 24.95 -11 12.2 73 -14.9 5.2
23:30 1016 30 846 24.98 -10.9 12.3 73 -14.8 5.3
23:35 1016 30 846 24.98 -10.9 12.4 73 -14.9 5.2
23:40 1016 30 846 24.98 -10.8 12.5 72 -14.9 5.2
23:45 1016 30 846 24.98 -10.9 12.5 73 -14.8 5.3
23:50 1016 30 846 24.98 -10.8 12.6 73 -14.7 5.5
23:55 1017 30.03 846 24.98 -10.7 12.8 71 -15.1 4.9
24:00 1016 30 846 24.98 -10.5 13 73 -14.4 6